createdAt,value
2022-11-20T00:02:11.292Z,1.90
2022-11-20T00:04:55.999Z,1.75
2022-11-20T00:07:40.929Z,1.66
2022-11-20T00:10:25.771Z,1.70
2022-11-20T00:13:10.592Z,1.65
2022-11-20T00:15:55.661Z,1.76
2022-11-20T00:18:40.692Z,1.78
2022-11-20T00:21:25.488Z,1.74
2022-11-20T00:24:10.345Z,1.63
2022-11-20T00:26:55.229Z,1.32
2022-11-20T00:29:40.178Z,1.44
2022-11-20T00:32:25.030Z,1.57
2022-11-20T00:35:09.922Z,1.58
2022-11-20T00:37:54.797Z,1.52
2022-11-20T00:40:39.837Z,1.51
2022-11-20T00:43:24.660Z,1.42
2022-11-20T00:46:09.473Z,1.39
2022-11-20T00:48:54.484Z,1.27
2022-11-20T00:51:39.304Z,1.33
2022-11-20T00:54:24.341Z,1.21
2022-11-20T00:57:09.232Z,1.40
2022-11-20T00:59:54.147Z,1.35
2022-11-20T01:02:38.972Z,1.26
2022-11-20T01:05:24.017Z,1.28
2022-11-20T01:08:08.881Z,1.34
2022-11-20T01:10:53.753Z,1.47
2022-11-20T01:13:38.810Z,1.61
2022-11-20T01:16:23.743Z,1.63
2022-11-20T01:19:08.665Z,1.54
2022-11-20T01:21:53.527Z,1.63
2022-11-20T01:24:38.381Z,1.58
2022-11-20T01:27:23.345Z,1.67
2022-11-20T01:30:08.235Z,1.29
2022-11-20T01:32:53.359Z,1.53
2022-11-20T01:35:38.205Z,1.30
2022-11-20T01:38:23.245Z,1.20
2022-11-20T01:41:08.108Z,1.23
2022-11-20T01:43:53.025Z,1.49
2022-11-20T01:46:37.894Z,1.43
2022-11-20T01:49:22.900Z,1.38
2022-11-20T01:52:08.199Z,1.92
2022-11-20T01:54:53.077Z,1.60
2022-11-20T01:57:37.962Z,1.77
2022-11-20T02:00:22.837Z,1.75
2022-11-20T02:03:07.637Z,1.88
2022-11-20T02:05:52.500Z,1.79
2022-11-20T02:08:37.427Z,1.55
2022-11-20T02:11:22.297Z,1.45
2022-11-20T02:14:07.131Z,1.67
2022-11-20T02:16:52.044Z,1.84
2022-11-20T02:19:36.877Z,2.25
2022-11-20T02:22:21.911Z,2.19
2022-11-20T02:25:06.771Z,2.67
2022-11-20T02:27:51.834Z,2.59
2022-11-20T02:30:36.590Z,2.27
2022-11-20T02:33:21.425Z,2.23
2022-11-20T02:36:06.413Z,2.03
2022-11-20T02:38:51.313Z,1.80
2022-11-20T02:41:36.304Z,1.53
2022-11-20T02:44:21.186Z,1.64
2022-11-20T02:47:06.316Z,1.56
2022-11-20T02:49:51.255Z,1.88
2022-11-20T02:52:36.251Z,2.60
2022-11-20T02:55:21.042Z,2.56
2022-11-20T02:58:05.879Z,2.35
2022-11-20T03:00:50.836Z,1.79
2022-11-20T03:03:35.670Z,1.81
2022-11-20T03:06:20.496Z,1.63
2022-11-20T03:09:05.309Z,1.32
2022-11-20T03:11:50.245Z,1.30
2022-11-20T03:14:35.122Z,1.03
2022-11-20T03:17:20.085Z,0.94
2022-11-20T03:20:05.007Z,1.14
2022-11-20T03:22:49.852Z,1.01
2022-11-20T03:25:34.785Z,0.91
2022-11-20T03:28:19.676Z,1.02
2022-11-20T03:31:04.774Z,1.02
2022-11-20T03:33:49.695Z,0.89
2022-11-20T03:36:35.831Z,1.16
2022-11-20T03:39:21.045Z,1.23
2022-11-20T03:42:06.139Z,1.45
2022-11-20T03:44:50.956Z,1.39
2022-11-20T03:47:35.913Z,1.50
2022-11-20T03:50:20.967Z,1.60
2022-11-20T03:53:05.820Z,1.66
2022-11-20T03:55:50.611Z,2.03
2022-11-20T03:58:35.415Z,2.22
2022-11-20T04:01:20.329Z,2.41
2022-11-20T04:04:05.136Z,2.10
2022-11-20T04:06:50.079Z,2.14
2022-11-20T04:09:34.904Z,1.98
2022-11-20T04:12:19.888Z,2.00
2022-11-20T04:15:04.695Z,2.17
2022-11-20T04:17:49.523Z,2.09
2022-11-20T04:20:34.607Z,2.16
2022-11-20T04:23:20.256Z,1.98
2022-11-20T04:26:07.544Z,2.00
2022-11-20T04:28:52.377Z,1.91
2022-11-20T04:31:37.246Z,1.93
2022-11-20T04:34:22.145Z,1.88
2022-11-20T04:37:07.027Z,1.93
2022-11-20T04:39:52.030Z,1.74
2022-11-20T04:42:36.796Z,1.76
2022-11-20T04:45:21.779Z,1.71
2022-11-20T04:48:06.649Z,1.84
2022-11-20T04:50:51.570Z,1.81
2022-11-20T04:53:36.491Z,1.89
2022-11-20T04:56:21.417Z,1.80
2022-11-20T04:59:06.363Z,1.95
2022-11-20T05:01:51.419Z,1.83
2022-11-20T05:04:36.961Z,1.80
2022-11-20T05:07:21.849Z,1.80
2022-11-20T05:10:06.675Z,1.97
2022-11-20T05:12:51.514Z,2.30
2022-11-20T05:15:36.372Z,2.88
2022-11-20T05:18:21.233Z,2.58
2022-11-20T05:21:06.085Z,2.76
2022-11-20T05:23:51.037Z,2.69
2022-11-20T05:26:35.871Z,3.04
2022-11-20T05:29:21.084Z,2.73
2022-11-20T05:32:06.097Z,2.81
2022-11-20T05:34:51.049Z,2.89
2022-11-20T05:37:36.086Z,2.47
2022-11-20T05:40:21.028Z,2.43
2022-11-20T05:43:06.074Z,2.44
2022-11-20T05:45:50.928Z,2.54
2022-11-20T05:48:35.910Z,2.40
2022-11-20T05:51:20.811Z,2.62
2022-11-20T05:54:05.717Z,2.48
2022-11-20T05:56:50.584Z,2.47
2022-11-20T05:59:35.462Z,2.68
2022-11-20T06:02:20.325Z,2.68
2022-11-20T06:05:05.217Z,2.93
2022-11-20T06:07:50.048Z,3.28
2022-11-20T06:10:34.961Z,3.47
2022-11-20T06:13:20.054Z,3.51
2022-11-20T06:16:05.057Z,3.68
2022-11-20T06:18:49.904Z,3.24
2022-11-20T06:21:34.820Z,3.61
2022-11-20T06:24:19.804Z,3.51
2022-11-20T06:27:04.569Z,3.70
2022-11-20T06:29:49.457Z,3.69
2022-11-20T06:32:34.405Z,3.79
2022-11-20T06:35:19.095Z,4.29
2022-11-20T06:38:04.070Z,4.77
2022-11-20T06:40:48.853Z,4.38
2022-11-20T06:43:33.757Z,4.58
2022-11-20T06:46:18.637Z,4.72
2022-11-20T06:49:03.643Z,4.99
2022-11-20T06:51:48.524Z,4.97
2022-11-20T06:54:33.483Z,4.74
2022-11-20T06:57:18.325Z,5.37
2022-11-20T07:00:03.277Z,5.26
2022-11-20T07:02:48.240Z,4.92
2022-11-20T07:05:33.049Z,4.60
2022-11-20T07:08:18.111Z,4.38
2022-11-20T07:11:02.889Z,4.49
2022-11-20T07:13:47.820Z,4.37
2022-11-20T07:16:32.742Z,4.41
2022-11-20T07:19:17.678Z,4.35
2022-11-20T07:22:02.621Z,4.47
2022-11-20T07:24:47.459Z,4.56
2022-11-20T07:27:32.331Z,4.40
2022-11-20T07:30:17.251Z,4.52
2022-11-20T07:33:02.300Z,4.21
2022-11-20T07:35:47.066Z,4.29
2022-11-20T07:38:32.019Z,4.02
2022-11-20T07:41:16.913Z,3.85
2022-11-20T07:44:01.762Z,3.64
2022-11-20T07:46:46.671Z,2.85
2022-11-20T07:49:31.621Z,2.97
2022-11-20T07:52:16.489Z,3.53
2022-11-20T07:55:01.340Z,3.77
2022-11-20T07:57:46.444Z,4.26
2022-11-20T08:00:31.309Z,4.03
2022-11-20T08:03:20.268Z,4.27
2022-11-20T08:06:09.419Z,4.03
2022-11-20T08:08:54.347Z,3.96
2022-11-20T08:11:39.390Z,3.96
2022-11-20T08:14:24.476Z,4.13
2022-11-20T08:17:09.297Z,3.85
2022-11-20T08:19:54.266Z,4.18
2022-11-20T08:22:39.107Z,3.89
2022-11-20T08:25:23.941Z,3.91
2022-11-20T08:28:19.961Z,3.54
2022-11-20T08:31:06.300Z,3.13
2022-11-20T08:33:51.152Z,3.15
2022-11-20T08:36:35.865Z,3.13
2022-11-20T08:39:21.740Z,2.87
2022-11-20T08:44:52.290Z,3.08
2022-11-20T08:47:37.226Z,3.05
2022-11-20T08:50:22.098Z,3.05
2022-11-20T08:53:06.955Z,3.12
2022-11-20T08:55:51.960Z,3.33
2022-11-20T08:59:02.039Z,3.20
2022-11-20T09:01:41.799Z,3.40
2022-11-20T09:04:26.857Z,3.83
2022-11-20T09:07:12.238Z,3.86
2022-11-20T09:10:16.836Z,3.56
2022-11-20T09:13:02.255Z,3.18
2022-11-20T09:15:47.110Z,3.07
2022-11-20T09:18:32.181Z,2.96
2022-11-20T09:21:16.974Z,2.92
2022-11-20T09:24:01.905Z,2.99
2022-11-20T09:26:46.805Z,2.93
2022-11-20T09:29:31.505Z,2.53
2022-11-20T09:32:16.516Z,2.05
2022-11-20T09:37:51.431Z,1.65
2022-11-20T09:40:36.285Z,1.63
2022-11-20T09:43:21.121Z,1.61
2022-11-20T09:46:05.963Z,1.64
2022-11-20T09:48:50.863Z,1.74
2022-11-20T09:51:35.860Z,1.72
2022-11-20T09:54:20.841Z,1.66
2022-11-20T09:57:05.790Z,1.49
2022-11-20T09:59:50.616Z,1.42
2022-11-20T10:02:35.674Z,1.34
2022-11-20T10:05:20.609Z,1.41
2022-11-20T10:08:05.917Z,1.30
2022-11-20T10:10:53.597Z,1.32
2022-11-20T10:13:39.044Z,1.47
2022-11-20T10:16:23.958Z,1.26
2022-11-20T10:19:09.034Z,1.24
2022-11-20T10:21:53.932Z,1.54
2022-11-20T10:24:38.844Z,1.42
2022-11-20T10:27:23.708Z,1.22
2022-11-20T10:30:08.543Z,1.44
2022-11-20T10:32:53.413Z,1.45
2022-11-20T10:35:38.380Z,1.69
2022-11-20T10:38:23.451Z,2.08
2022-11-20T10:41:08.341Z,1.86
2022-11-20T10:43:53.347Z,1.82
2022-11-20T10:46:38.160Z,1.65
2022-11-20T10:49:23.365Z,1.52
2022-11-20T10:52:08.407Z,1.48
2022-11-20T10:54:53.277Z,1.65
2022-11-20T10:57:38.082Z,1.74
2022-11-20T11:00:23.007Z,1.54
2022-11-20T11:03:07.976Z,1.63
2022-11-20T11:05:52.848Z,1.42
2022-11-20T11:08:37.864Z,1.41
2022-11-20T11:11:22.737Z,1.37
2022-11-20T11:14:07.569Z,1.37
2022-11-20T11:16:52.347Z,1.33
2022-11-20T11:19:37.146Z,1.44
2022-11-20T11:22:21.978Z,1.25
2022-11-20T11:25:06.730Z,1.28
2022-11-20T11:27:51.896Z,1.19
2022-11-20T11:30:37.075Z,1.21
2022-11-20T11:33:22.122Z,1.34
2022-11-20T11:36:06.941Z,1.23
2022-11-20T11:38:51.837Z,1.24
2022-11-20T11:41:36.676Z,1.36
2022-11-20T11:44:21.586Z,1.45
2022-11-20T11:47:06.341Z,1.36
2022-11-20T11:49:51.307Z,1.69
2022-11-20T11:52:36.329Z,1.26
2022-11-20T11:55:21.201Z,1.12
2022-11-20T11:58:06.221Z,1.12
2022-11-20T12:00:50.985Z,1.12
2022-11-20T12:03:35.888Z,0.84
2022-11-20T12:06:20.815Z,0.80
2022-11-20T12:09:05.612Z,0.81
2022-11-20T12:11:50.539Z,1.20
2022-11-20T12:14:35.464Z,0.93
2022-11-20T12:17:20.352Z,1.06
2022-11-20T12:20:05.202Z,1.08
2022-11-20T12:22:50.107Z,1.15
2022-11-20T12:25:35.030Z,1.01
2022-11-20T12:28:19.905Z,1.03
2022-11-20T12:31:04.684Z,0.88
2022-11-20T12:33:49.637Z,0.94
2022-11-20T12:36:34.504Z,0.90
2022-11-20T12:39:19.459Z,0.81
2022-11-20T12:42:04.244Z,1.00
2022-11-20T12:44:49.132Z,1.06
2022-11-20T12:47:34.164Z,1.13
2022-11-20T12:50:18.965Z,1.03
2022-11-20T12:53:04.025Z,0.95
2022-11-20T12:55:48.978Z,1.18
2022-11-20T12:58:33.898Z,1.00
2022-11-20T13:01:18.854Z,1.00
2022-11-20T13:04:07.791Z,1.05
2022-11-20T13:06:55.530Z,1.06
2022-11-20T13:09:40.561Z,1.08
2022-11-20T13:12:25.450Z,1.09
2022-11-20T13:15:10.377Z,0.93
2022-11-20T13:17:55.107Z,1.06
2022-11-20T13:20:39.953Z,1.13
2022-11-20T13:23:24.669Z,1.08
2022-11-20T13:26:09.616Z,0.99
2022-11-20T13:28:54.533Z,0.89
2022-11-20T13:31:39.474Z,0.95
2022-11-20T13:34:25.834Z,0.89
2022-11-20T13:37:10.700Z,0.87
2022-11-20T13:39:55.604Z,0.86
2022-11-20T13:42:40.421Z,0.60
2022-11-20T13:45:25.439Z,0.64
2022-11-20T13:48:10.183Z,0.61
2022-11-20T13:50:55.068Z,0.99
2022-11-20T13:53:39.966Z,0.99
2022-11-20T13:56:24.910Z,0.84
2022-11-20T13:59:14.700Z,0.88
2022-11-20T14:02:00.500Z,0.93
2022-11-20T14:04:45.434Z,0.92
2022-11-20T14:07:30.433Z,0.77
2022-11-20T14:10:15.147Z,0.70
2022-11-20T14:13:00.108Z,0.69
2022-11-20T14:15:45.435Z,0.87
2022-11-20T14:18:30.250Z,0.89
2022-11-20T14:21:15.103Z,0.80
2022-11-20T14:23:59.916Z,0.75
2022-11-20T14:26:44.862Z,1.21
2022-11-20T14:29:29.733Z,0.68
2022-11-20T14:32:14.729Z,0.96
2022-11-20T14:34:59.557Z,1.16
2022-11-20T14:37:44.509Z,1.18
2022-11-20T14:40:29.361Z,1.26
2022-11-20T14:43:14.157Z,1.31
2022-11-20T14:45:59.022Z,1.26
2022-11-20T14:48:43.879Z,1.47
2022-11-20T14:51:28.787Z,1.47
2022-11-20T14:54:13.539Z,1.55
2022-11-20T14:56:58.510Z,1.66
2022-11-20T14:59:43.325Z,1.61
2022-11-20T15:02:28.451Z,1.52
2022-11-20T15:05:13.406Z,1.62
2022-11-20T15:07:58.335Z,1.52
2022-11-20T15:10:43.221Z,1.55
2022-11-20T15:13:28.217Z,1.42
2022-11-20T15:16:13.011Z,1.36
2022-11-20T15:18:58.032Z,1.45
2022-11-20T15:21:43.113Z,1.52
2022-11-20T15:24:27.968Z,1.43
2022-11-20T15:27:13.177Z,1.36
2022-11-20T15:29:57.971Z,1.36
2022-11-20T15:32:42.984Z,5.04
2022-11-20T15:35:27.897Z,1.34
2022-11-20T15:38:12.796Z,1.19
2022-11-20T15:40:57.741Z,1.13
2022-11-20T15:43:44.450Z,1.24
2022-11-20T15:46:29.754Z,1.35
2022-11-20T15:49:14.643Z,1.22
2022-11-20T15:51:59.483Z,1.28
2022-11-20T15:54:44.440Z,1.36
2022-11-20T15:57:31.269Z,1.63
2022-11-20T16:00:20.705Z,1.44
2022-11-20T16:03:08.803Z,1.54
2022-11-20T16:05:53.682Z,1.27
2022-11-20T16:08:38.670Z,1.38
2022-11-20T16:11:23.527Z,1.27
2022-11-20T16:14:08.514Z,1.28
2022-11-20T16:16:53.477Z,1.26
2022-11-20T16:19:38.473Z,1.28
2022-11-20T16:22:23.276Z,1.57
2022-11-20T16:25:08.295Z,1.51
2022-11-20T16:27:53.394Z,1.54
2022-11-20T16:30:38.201Z,2.22
2022-11-20T16:33:22.979Z,1.61
2022-11-20T16:36:07.977Z,1.63
2022-11-20T16:38:53.100Z,2.82
2022-11-20T16:41:38.638Z,1.95
2022-11-20T16:44:24.045Z,1.84
2022-11-20T16:47:09.484Z,1.80
2022-11-20T16:49:54.431Z,1.92
2022-11-20T16:52:39.538Z,1.85
2022-11-20T16:55:24.721Z,1.68
2022-11-20T16:58:12.814Z,1.80
2022-11-20T17:00:57.768Z,1.39
2022-11-20T17:03:43.666Z,1.96
2022-11-20T17:06:28.624Z,1.87
2022-11-20T17:09:13.519Z,1.78
2022-11-20T17:11:58.520Z,1.69
2022-11-20T17:14:43.629Z,2.93
2022-11-20T17:17:28.449Z,2.14
2022-11-20T17:20:13.433Z,2.22
2022-11-20T17:22:58.261Z,2.44
2022-11-20T17:25:43.316Z,1.95
2022-11-20T17:28:28.009Z,3.96
2022-11-20T17:31:12.960Z,2.68
2022-11-20T17:33:57.829Z,2.31
2022-11-20T17:36:45.229Z,3.51
2022-11-20T17:39:30.717Z,4.38
2022-11-20T17:42:15.504Z,2.94
2022-11-20T17:45:00.266Z,3.11
2022-11-20T17:47:45.184Z,2.75
2022-11-20T17:50:30.065Z,2.26
2022-11-20T17:53:15.182Z,2.92
2022-11-20T17:56:00.271Z,2.64
2022-11-20T17:58:45.173Z,2.77
2022-11-20T18:01:30.012Z,2.75
2022-11-20T18:04:15.986Z,4.57
2022-11-20T18:07:00.990Z,2.94
2022-11-20T18:09:46.400Z,1.78
2022-11-20T18:12:31.345Z,1.92
2022-11-20T18:15:16.208Z,1.67
2022-11-20T18:18:01.395Z,1.59
2022-11-20T18:20:46.532Z,1.28
2022-11-20T18:23:32.063Z,0.91
2022-11-20T18:26:17.669Z,1.19
2022-11-20T18:29:07.223Z,1.26
2022-11-20T18:31:52.541Z,1.37
2022-11-20T18:34:37.413Z,1.47
2022-11-20T18:37:22.438Z,1.87
2022-11-20T18:40:07.364Z,1.90
2022-11-20T18:42:52.172Z,1.87
2022-11-20T18:45:37.129Z,1.88
2022-11-20T18:48:22.223Z,3.21
2022-11-20T18:51:07.955Z,2.17
2022-11-20T18:53:53.119Z,1.33
2022-11-20T18:56:38.421Z,1.49
2022-11-20T18:59:23.357Z,1.38
2022-11-20T19:02:08.197Z,1.28
2022-11-20T19:04:53.420Z,1.55
2022-11-20T19:07:38.453Z,1.92
2022-11-20T19:10:23.801Z,1.82
2022-11-20T19:13:08.772Z,1.79
2022-11-20T19:15:53.649Z,2.28
2022-11-20T19:18:38.429Z,1.86
2022-11-20T19:21:23.954Z,1.94
2022-11-20T19:24:08.981Z,2.55
2022-11-20T19:26:53.900Z,2.49
2022-11-20T19:29:38.915Z,2.78
2022-11-20T19:32:23.710Z,2.82
2022-11-20T19:35:08.812Z,2.94
2022-11-20T19:37:53.741Z,3.37
2022-11-20T19:40:38.664Z,3.12
2022-11-20T19:43:23.676Z,2.74
2022-11-20T19:46:08.976Z,3.02
2022-11-20T19:48:53.981Z,2.93
2022-11-20T19:51:38.924Z,2.68
2022-11-20T19:54:23.797Z,4.26
2022-11-20T19:57:08.619Z,4.98
2022-11-20T19:59:53.598Z,2.33
2022-11-20T20:02:38.479Z,2.46
2022-11-20T20:05:23.534Z,2.08
2022-11-20T20:08:08.554Z,2.16
2022-11-20T20:10:56.718Z,2.33
2022-11-20T20:13:44.382Z,2.94
2022-11-20T20:16:29.271Z,2.42
2022-11-20T20:19:14.199Z,2.55
2022-11-20T20:21:59.348Z,3.05
2022-11-20T20:24:44.325Z,3.00
2022-11-20T20:27:29.473Z,3.54
2022-11-20T20:30:14.682Z,3.36
2022-11-20T20:32:59.721Z,2.86
2022-11-20T20:35:44.709Z,3.53
2022-11-20T20:38:29.472Z,3.38
2022-11-20T20:41:14.560Z,3.50
2022-11-20T20:43:59.526Z,2.62
2022-11-20T20:46:44.633Z,2.51
2022-11-20T20:49:29.425Z,2.58
2022-11-20T20:52:14.480Z,2.15
2022-11-20T20:54:59.235Z,2.23
2022-11-20T20:57:44.206Z,2.46
2022-11-20T21:00:29.185Z,2.22
2022-11-20T21:03:14.001Z,2.32
2022-11-20T21:05:58.931Z,2.50
2022-11-20T21:08:44.756Z,2.40
2022-11-20T21:11:29.963Z,2.44
2022-11-20T21:14:14.769Z,2.59
2022-11-20T21:16:59.751Z,2.48
2022-11-20T21:19:44.776Z,2.16
2022-11-20T21:22:32.642Z,2.22
2022-11-20T21:25:21.256Z,2.21
2022-11-20T21:28:06.096Z,2.30
2022-11-20T21:30:51.164Z,2.35
2022-11-20T21:33:36.292Z,2.20
2022-11-20T21:36:21.106Z,2.31
2022-11-20T21:39:06.041Z,2.25
2022-11-20T21:41:50.846Z,2.02
2022-11-20T21:44:35.748Z,2.26
2022-11-20T21:47:20.719Z,2.16
2022-11-20T21:50:05.553Z,2.11
2022-11-20T21:52:50.403Z,2.38
2022-11-20T21:55:35.380Z,2.31
2022-11-20T21:58:20.235Z,2.25
2022-11-20T22:01:05.048Z,2.38
2022-11-20T22:03:49.889Z,2.34
2022-11-20T22:06:34.728Z,2.05
2022-11-20T22:09:19.544Z,2.05
2022-11-20T22:12:04.268Z,2.20
2022-11-20T22:14:49.215Z,2.36
2022-11-20T22:17:34.198Z,2.33
2022-11-20T22:20:19.143Z,2.32
2022-11-20T22:23:03.973Z,4.75
2022-11-20T22:25:48.821Z,2.48
2022-11-20T22:28:33.597Z,2.66
2022-11-20T22:31:18.486Z,2.49
2022-11-20T22:34:03.510Z,2.45
2022-11-20T22:36:48.400Z,2.52
2022-11-20T22:39:33.370Z,2.73
2022-11-20T22:42:18.402Z,2.55
2022-11-20T22:45:03.314Z,2.38
2022-11-20T22:47:48.961Z,1.56
2022-11-20T22:50:34.045Z,3.08
2022-11-20T22:53:18.878Z,2.94
2022-11-20T22:56:03.622Z,3.67
2022-11-20T22:58:48.426Z,2.37
2022-11-20T23:01:33.389Z,2.87
2022-11-20T23:04:18.151Z,2.84
2022-11-20T23:07:03.301Z,2.13
2022-11-20T23:09:48.209Z,1.95
2022-11-20T23:12:33.137Z,2.16
2022-11-20T23:15:17.888Z,1.45
2022-11-20T23:18:02.754Z,1.35
2022-11-20T23:20:47.593Z,1.17
2022-11-20T23:23:32.524Z,1.11
2022-11-20T23:26:17.321Z,1.15
2022-11-20T23:29:02.140Z,1.14
2022-11-20T23:31:47.106Z,1.53
2022-11-20T23:34:31.988Z,1.33
2022-11-20T23:37:16.895Z,1.39
2022-11-20T23:40:01.727Z,1.67
2022-11-20T23:42:46.864Z,2.14
2022-11-20T23:45:31.827Z,2.16
2022-11-20T23:48:16.609Z,2.18
2022-11-20T23:51:01.478Z,1.85
2022-11-20T23:53:46.344Z,2.05
2022-11-20T23:56:31.345Z,2.00
2022-11-20T23:59:16.184Z,1.99
